Box Springs, California
Current Conditions -  °F | °C
As of 3:53 AM on Thursday 27 Nov 2014 (Local Time) from KRAL Reporting Station
Clear Clear  
Wind Chill: 58°   Ceiling: Unl
Heat Index: 58°   Visibility: 10mi
Dew Point: 25°   Wind: 5mph
Humidity: 28%   Direction: 50°NE
Pressure: 30.12"   Gusts: NA
Location:  33.9841°N, 117.329°W
Report Text: KRAL 271153Z AUTO 05004KT 10SM CLR 14/M04 A3012 RMK AO2 SLP184 T01441039 10172 20122 58009 $
Loading
Personal Weather Stations






























Interactive Weather Map New forecast layout! Learn more

10-Day Weather Forecast

Advertisements
Track Severe Weather on mobile